Time;durP1;ratioP1;P1;durP2;ratioP2;P2;SDS_P1;SDS_P2;PMS_P1;PMS_P2;Temp;Humidity;BMP_temperature;BMP_pressure;BME280_temperature;BME280_humidity;BME280_pressure;Samples;Min_cycle;Max_cycle;Signal;HPM_P1;HPM_P2
2022/12/19 00:01:50;;;;;;;76.73;38.70;;;-3.50;99.90;;;;;;6280785;22;20179;-88
2022/12/19 00:04:18;;;;;;;79.53;38.40;;;-3.50;99.90;;;;;;6280634;22;20149;-88
2022/12/19 00:06:44;;;;;;;73.10;38.77;;;-3.50;99.90;;;;;;6280441;22;20195;-88
2022/12/19 00:09:11;;;;;;;75.83;39.43;;;-3.50;99.90;;;;;;6280167;22;20262;-88
2022/12/19 00:11:38;;;;;;;77.70;38.67;;;-3.50;99.90;;;;;;6280603;22;20273;-88
2022/12/19 00:14:04;;;;;;;73.43;38.03;;;-3.50;99.90;;;;;;6280549;22;20167;-88
2022/12/19 00:16:30;;;;;;;72.27;38.00;;;-3.50;99.90;;;;;;6280765;22;20466;-89
2022/12/19 00:18:59;;;;;;;69.80;36.37;;;-3.50;99.90;;;;;;6279997;22;20243;-88
2022/12/19 00:21:28;;;;;;;72.97;38.73;;;-3.50;99.90;;;;;;6280674;22;20213;-88
2022/12/19 00:23:54;;;;;;;76.77;39.00;;;-3.50;99.90;;;;;;6280308;22;20171;-87
2022/12/19 00:26:31;;;;;;;80.13;39.73;;;-3.50;99.90;;;;;;6280650;22;20152;-88
2022/12/19 00:28:59;;;;;;;84.43;39.67;;;-3.40;99.90;;;;;;6280154;22;20150;-88
2022/12/19 00:31:30;;;;;;;75.77;37.03;;;-3.40;99.90;;;;;;6280009;22;20183;-88
2022/12/19 00:33:57;;;;;;;77.67;39.40;;;-3.40;99.90;;;;;;6280268;22;20171;-88
2022/12/19 00:36:26;;;;;;;73.60;37.47;;;-3.40;99.90;;;;;;6280714;22;20162;-89
2022/12/19 00:38:53;;;;;;;74.93;37.33;;;-3.40;99.90;;;;;;6280027;22;20186;-88
2022/12/19 00:41:25;;;;;;;74.53;36.10;;;-3.40;99.90;;;;;;6305813;22;20210;-88
2022/12/19 00:43:53;;;;;;;75.27;37.07;;;-3.40;99.90;;;;;;6280245;22;20152;-88
2022/12/19 00:46:19;;;;;;;83.77;40.33;;;-3.40;99.90;;;;;;6280144;22;20174;-88
2022/12/19 00:48:45;;;;;;;83.47;40.97;;;-3.40;99.90;;;;;;6279902;22;20156;-88
2022/12/19 00:51:17;;;;;;;70.60;36.73;;;-3.40;99.90;;;;;;6280116;22;20175;-88
2022/12/19 00:53:45;;;;;;;89.30;39.57;;;-3.40;99.90;;;;;;6280456;22;20210;-88
2022/12/19 00:56:14;;;;;;;70.90;36.43;;;-3.30;99.90;;;;;;6280785;22;20152;-88
2022/12/19 00:58:40;;;;;;;74.67;38.00;;;-3.30;99.90;;;;;;6280397;22;20186;-88
2022/12/19 01:01:13;;;;;;;72.80;37.83;;;-3.30;99.90;;;;;;6305775;22;20229;-88
2022/12/19 01:03:39;;;;;;;75.00;37.10;;;-3.30;99.90;;;;;;6280193;22;20148;-88
2022/12/19 01:06:05;;;;;;;75.20;37.20;;;-3.30;99.90;;;;;;6280143;22;20234;-88
2022/12/19 01:08:32;;;;;;;73.53;35.37;;;-3.30;99.90;;;;;;6281159;22;20263;-88
2022/12/19 01:10:58;;;;;;;74.47;36.20;;;-3.30;99.90;;;;;;6282048;22;20172;-89
2022/12/19 01:13:26;;;;;;;69.90;34.53;;;-3.30;99.90;;;;;;6281144;22;20352;-88
2022/12/19 01:15:51;;;;;;;66.17;33.37;;;-3.30;99.90;;;;;;6282307;22;20216;-88
2022/12/19 01:18:17;;;;;;;68.63;35.57;;;-3.30;99.90;;;;;;6281757;22;20605;-88
2022/12/19 01:20:46;;;;;;;70.07;35.63;;;-3.30;99.90;;;;;;6282578;22;20578;-88
2022/12/19 01:23:14;;;;;;;62.70;33.20;;;-3.30;99.90;;;;;;6281873;22;20594;-88
2022/12/19 01:25:40;;;;;;;69.57;34.70;;;-3.30;99.90;;;;;;6281853;22;20175;-88
2022/12/19 01:28:10;;;;;;;69.73;35.37;;;-3.20;99.90;;;;;;6281746;22;20188;-89
2022/12/19 01:30:39;;;;;;;66.97;34.07;;;-3.20;99.90;;;;;;6282278;22;20224;-88
2022/12/19 01:33:05;;;;;;;63.23;34.23;;;-3.20;99.90;;;;;;6307646;22;20202;-89
2022/12/19 01:35:31;;;;;;;67.87;35.93;;;-3.20;99.90;;;;;;6281774;22;20152;-88
2022/12/19 01:37:58;;;;;;;67.10;34.67;;;-3.20;99.90;;;;;;6281900;22;20162;-89
2022/12/19 01:40:24;;;;;;;71.57;35.73;;;-3.20;99.90;;;;;;6281915;22;20159;-88
2022/12/19 01:42:51;;;;;;;66.97;36.40;;;-3.10;99.90;;;;;;6307614;22;20156;-88
2022/12/19 01:45:22;;;;;;;65.63;34.87;;;-3.10;99.90;;;;;;6281805;22;20160;-87
2022/12/19 01:47:53;;;;;;;65.00;35.13;;;-3.10;99.90;;;;;;6281313;22;20172;-89
2022/12/19 01:50:57;;;;;;;70.87;37.10;;;-3.10;99.90;;;;;;6307009;22;20151;-88
2022/12/19 01:53:39;;;;;;;69.13;36.73;;;-3.00;99.90;;;;;;6281716;22;20184;-88
2022/12/19 01:56:08;;;;;;;75.97;35.27;;;-3.00;99.90;;;;;;6281830;22;20152;-88
2022/12/19 01:58:37;;;;;;;70.57;35.43;;;-3.00;99.90;;;;;;6281282;22;20158;-88
2022/12/19 02:01:03;;;;;;;73.10;37.40;;;-3.00;99.90;;;;;;6281507;22;20171;-89
2022/12/19 02:03:32;;;;;;;74.13;37.20;;;-3.00;99.90;;;;;;6281657;22;20160;-89
2022/12/19 02:05:59;;;;;;;70.70;36.37;;;-2.90;99.90;;;;;;6281725;22;20167;-88
2022/12/19 02:08:27;;;;;;;73.03;36.77;;;-2.90;99.90;;;;;;6281825;22;20184;-89
2022/12/19 02:11:02;;;;;;;70.80;37.70;;;-2.90;99.90;;;;;;6281609;22;20217;-88
2022/12/19 02:13:29;;;;;;;72.63;38.03;;;-2.90;99.90;;;;;;6281464;22;20147;-88
2022/12/19 02:16:21;;;;;;;70.87;37.57;;;-2.90;99.90;;;;;;6282074;22;20202;-88
2022/12/19 02:19:38;;;;;;;80.53;39.13;;;-2.90;99.90;;;;;;6253469;22;20159;-88
2022/12/19 02:22:29;;;;;;;74.87;39.30;;;-2.90;99.90;;;;;;6281313;22;20180;-88
2022/12/19 02:25:19;;;;;;;74.83;38.80;;;-2.90;99.90;;;;;;6281608;22;20156;-89
2022/12/19 02:28:04;;;;;;;74.27;39.57;;;-2.90;99.90;;;;;;6255768;22;20645;-89
2022/12/19 02:30:44;;;;;;;78.17;40.70;;;-2.80;99.90;;;;;;6281524;22;20159;-88
2022/12/19 02:33:40;;;;;;;72.73;38.80;;;-2.80;99.90;;;;;;6281875;22;20151;-88
2022/12/19 02:36:20;;;;;;;76.60;39.03;;;-2.80;99.90;;;;;;6281473;22;20144;-88
2022/12/19 02:38:55;;;;;;;73.53;38.10;;;-2.80;99.90;;;;;;6281517;22;20151;-89
2022/12/19 02:41:25;;;;;;;69.40;35.80;;;-2.70;99.90;;;;;;6282050;22;20176;-88
2022/12/19 02:43:54;;;;;;;74.10;38.20;;;-2.70;99.90;;;;;;6281209;22;20209;-89
2022/12/19 02:46:25;;;;;;;75.43;37.57;;;-2.70;99.90;;;;;;6282530;22;20140;-88
2022/12/19 02:48:53;;;;;;;70.23;37.17;;;-2.70;99.90;;;;;;6281223;22;20174;-89
2022/12/19 02:51:19;;;;;;;69.00;37.20;;;-2.60;99.90;;;;;;6279890;22;20273;-89
2022/12/19 02:53:46;;;;;;;68.00;35.73;;;-2.60;99.90;;;;;;6278672;22;20209;-88
2022/12/19 02:56:31;;;;;;;73.03;37.03;;;-2.50;99.90;;;;;;6278406;22;20234;-89
2022/12/19 02:58:57;;;;;;;64.47;34.77;;;-2.50;99.90;;;;;;6278287;22;20148;-89
2022/12/19 03:02:02;;;;;;;71.80;35.20;;;-2.50;99.90;;;;;;6278086;22;20183;-89
2022/12/19 03:05:04;;;;;;;66.17;34.50;;;-2.40;99.90;;;;;;6279613;22;20156;-89
2022/12/19 03:07:40;;;;;;;64.93;34.47;;;-2.40;99.90;;;;;;6281008;22;20175;-88
2022/12/19 03:10:06;;;;;;;65.73;33.17;;;-2.40;99.90;;;;;;6254083;22;20231;-89
2022/12/19 03:12:42;;;;;;;66.17;34.80;;;-2.40;99.90;;;;;;6253065;22;20195;-88
2022/12/19 03:15:08;;;;;;;64.13;33.10;;;-2.30;99.90;;;;;;6278086;22;20564;-88
2022/12/19 03:17:36;;;;;;;65.47;32.77;;;-2.30;99.90;;;;;;6277914;22;20688;-89
2022/12/19 03:20:24;;;;;;;69.57;33.93;;;-2.30;99.90;;;;;;6278320;22;20176;-88
2022/12/19 03:22:50;;;;;;;71.77;34.67;;;-2.30;99.90;;;;;;6278131;22;20616;-88
2022/12/19 03:25:17;;;;;;;72.53;33.67;;;-2.20;99.90;;;;;;6278300;22;20156;-89
2022/12/19 03:27:45;;;;;;;63.70;33.33;;;-2.20;99.90;;;;;;6277861;22;20709;-89
2022/12/19 03:30:13;;;;;;;68.77;36.37;;;-2.20;99.90;;;;;;6277846;22;20160;-88
2022/12/19 03:32:42;;;;;;;64.73;33.77;;;-2.10;99.90;;;;;;6278904;22;20202;-89
2022/12/19 03:35:21;;;;;;;62.87;33.83;;;-2.10;99.90;;;;;;6279770;22;20163;-89
2022/12/19 03:37:51;;;;;;;65.97;33.37;;;-2.10;99.90;;;;;;6278031;22;20207;-89
2022/12/19 03:40:22;;;;;;;70.70;35.20;;;-2.00;99.90;;;;;;6278440;22;20227;-89
2022/12/19 03:43:09;;;;;;;68.80;36.67;;;-2.00;99.90;;;;;;6303578;22;20152;-89
2022/12/19 03:46:06;;;;;;;75.00;38.90;;;-2.00;99.90;;;;;;6278099;22;20490;-89
2022/12/19 03:48:46;;;;;;;78.83;40.47;;;-2.00;99.90;;;;;;6277743;22;20201;-89
2022/12/19 03:51:42;;;;;;;72.27;38.50;;;-2.00;99.90;;;;;;6277912;22;20179;-89
2022/12/19 03:54:24;;;;;;;75.50;39.30;;;-2.00;99.90;;;;;;6277575;22;20163;-89
2022/12/19 03:57:12;;;;;;;73.20;39.67;;;-2.00;99.90;;;;;;6278212;22;20158;-89
2022/12/19 03:59:43;;;;;;;72.43;38.33;;;-2.00;99.90;;;;;;6277891;22;20174;-89
2022/12/19 04:02:12;;;;;;;73.17;39.37;;;-2.00;99.90;;;;;;6277544;22;20214;-89
2022/12/19 04:04:42;;;;;;;70.37;39.97;;;-2.00;99.90;;;;;;6277751;22;20163;-88
2022/12/19 04:07:10;;;;;;;85.63;43.03;;;-2.00;99.90;;;;;;6277585;22;20196;-88
2022/12/19 04:09:39;;;;;;;73.77;39.47;;;-2.00;99.90;;;;;;6279733;22;20488;-88
2022/12/19 04:12:10;;;;;;;70.83;40.77;;;-2.00;99.90;;;;;;6280100;22;20180;-88
2022/12/19 04:14:38;;;;;;;71.67;38.50;;;-2.00;99.90;;;;;;6280112;22;20148;-89
2022/12/19 04:17:19;;;;;;;74.80;37.73;;;-2.00;99.90;;;;;;6280305;22;20206;-89
2022/12/19 04:19:53;;;;;;;75.40;39.77;;;-2.00;99.90;;;;;;6254146;22;20232;-89
2022/12/19 04:22:29;;;;;;;73.03;37.93;;;-2.00;99.90;;;;;;6280366;22;20183;-89
2022/12/19 04:24:58;;;;;;;75.97;38.27;;;-2.00;99.90;;;;;;6280156;22;20222;-88
2022/12/19 04:27:27;;;;;;;71.60;37.03;;;-1.90;99.90;;;;;;6280820;22;20199;-89
2022/12/19 04:29:56;;;;;;;68.37;38.07;;;-1.90;99.90;;;;;;6254622;22;20156;-88
2022/12/19 04:32:24;;;;;;;73.33;38.10;;;-1.90;99.90;;;;;;6280003;22;20228;-88
2022/12/19 04:34:50;;;;;;;71.33;38.03;;;-1.90;99.90;;;;;;6278966;22;20648;-88
2022/12/19 04:37:16;;;;;;;64.43;35.10;;;-1.80;99.90;;;;;;6280430;22;20164;-87
2022/12/19 04:39:41;;;;;;;67.43;36.47;;;-1.80;99.90;;;;;;6279964;22;20184;-88
2022/12/19 04:42:07;;;;;;;66.27;35.87;;;-1.80;99.90;;;;;;6279682;22;20188;-89
2022/12/19 04:44:52;;;;;;;75.03;37.97;;;-1.80;99.90;;;;;;6279592;22;20159;-89
2022/12/19 04:47:18;;;;;;;63.73;34.40;;;-1.70;99.90;;;;;;6279903;22;20183;-89
2022/12/19 04:49:44;;;;;;;62.10;34.50;;;-1.70;99.90;;;;;;6280202;22;20152;-89
2022/12/19 04:52:10;;;;;;;60.33;32.30;;;-1.70;99.90;;;;;;6279218;22;20198;-88
2022/12/19 04:54:36;;;;;;;70.73;34.10;;;-1.70;99.90;;;;;;6279240;22;20208;-89
2022/12/19 04:57:02;;;;;;;63.27;33.80;;;-1.60;99.90;;;;;;6280082;22;20192;-89
2022/12/19 04:59:28;;;;;;;63.57;34.77;;;-1.60;99.90;;;;;;6280131;22;20183;-89
2022/12/19 05:02:03;;;;;;;66.97;34.83;;;-1.50;99.90;;;;;;6279410;22;20184;-89
2022/12/19 05:04:32;;;;;;;67.37;36.03;;;-1.50;99.90;;;;;;6280677;22;20148;-88
2022/12/19 05:06:58;;;;;;;67.20;36.67;;;-1.50;99.90;;;;;;6280336;22;20239;-88
2022/12/19 05:09:30;;;;;;;67.40;35.33;;;-1.50;99.90;;;;;;6279122;22;20656;-89
2022/12/19 05:11:56;;;;;;;68.50;33.10;;;-1.50;99.90;;;;;;6279913;22;20180;-89
2022/12/19 05:14:22;;;;;;;68.07;36.40;;;-1.40;99.90;;;;;;6280440;22;20152;-88
2022/12/19 05:17:03;;;;;;;72.20;37.53;;;-1.40;99.90;;;;;;6280298;22;20449;-88
2022/12/19 05:19:29;;;;;;;74.13;37.60;;;-1.40;99.90;;;;;;6280011;22;20175;-88
2022/12/19 05:22:03;;;;;;;70.30;37.00;;;-1.30;99.90;;;;;;6279755;22;20263;-89
2022/12/19 05:24:29;;;;;;;69.10;37.30;;;-1.30;99.90;;;;;;6279929;22;20161;-89
2022/12/19 05:26:55;;;;;;;75.43;37.60;;;-1.30;99.90;;;;;;6279840;22;20192;-89
2022/12/19 05:29:21;;;;;;;64.00;35.00;;;-1.30;99.90;;;;;;6280251;22;20159;-88
2022/12/19 05:31:47;;;;;;;73.30;36.37;;;-1.30;99.90;;;;;;6279838;22;20176;-89
2022/12/19 05:34:13;;;;;;;69.63;35.63;;;-1.30;99.90;;;;;;6280039;22;20158;-88
2022/12/19 05:36:39;;;;;;;69.57;36.43;;;-1.30;99.90;;;;;;6280045;22;20152;-88
2022/12/19 05:39:05;;;;;;;70.40;35.20;;;-1.30;99.90;;;;;;6279845;22;20210;-88
2022/12/19 05:41:31;;;;;;;68.13;34.67;;;-1.20;99.90;;;;;;6279800;22;20207;-88
2022/12/19 05:43:57;;;;;;;71.03;35.97;;;-1.20;99.90;;;;;;6305752;22;20167;-89
2022/12/19 05:46:24;;;;;;;81.07;38.37;;;-1.20;99.90;;;;;;6280062;22;20230;-89
2022/12/19 05:48:50;;;;;;;85.80;41.60;;;-1.20;99.90;;;;;;6279514;22;20184;-88
2022/12/19 05:51:16;;;;;;;87.07;42.30;;;-1.20;99.90;;;;;;6279853;22;20176;-89
2022/12/19 05:53:42;;;;;;;84.53;42.07;;;-1.20;99.90;;;;;;6280525;22;20158;-89
2022/12/19 05:56:14;;;;;;;83.80;41.50;;;-1.10;99.90;;;;;;6281876;22;20160;-89
2022/12/19 05:58:41;;;;;;;92.33;45.40;;;-1.10;99.90;;;;;;6281678;22;20258;-89
2022/12/19 06:01:17;;;;;;;83.30;41.97;;;-1.10;99.90;;;;;;6281805;22;20180;-89
2022/12/19 06:03:43;;;;;;;67.87;37.57;;;-1.10;99.90;;;;;;6281688;22;20153;-89
2022/12/19 06:06:12;;;;;;;72.13;36.17;;;-1.10;99.90;;;;;;6282352;22;20214;-89
2022/12/19 06:08:40;;;;;;;75.43;38.40;;;-1.10;99.90;;;;;;6281336;22;20180;-89
2022/12/19 06:11:07;;;;;;;70.80;38.37;;;-1.00;99.90;;;;;;6281763;22;20249;-89
2022/12/19 06:13:34;;;;;;;78.17;41.47;;;-1.00;99.90;;;;;;6256242;22;20157;-89
2022/12/19 06:16:11;;;;;;;78.70;41.87;;;-1.00;99.90;;;;;;6281578;22;20163;-89
2022/12/19 06:18:38;;;;;;;70.47;37.57;;;-1.00;99.90;;;;;;6281415;22;20156;-89
2022/12/19 06:21:06;;;;;;;67.83;36.67;;;-1.00;99.90;;;;;;6281261;22;20200;-89
2022/12/19 06:23:34;;;;;;;63.47;33.87;;;-1.00;99.90;;;;;;6281206;22;20500;-89
2022/12/19 06:26:04;;;;;;;63.50;34.37;;;-1.00;99.90;;;;;;6281865;22;20167;-89
2022/12/19 06:28:32;;;;;;;64.97;34.70;;;-1.00;99.90;;;;;;6281528;22;20198;-89
2022/12/19 06:31:06;;;;;;;66.07;34.47;;;-0.90;99.90;;;;;;6281259;22;20191;-89
2022/12/19 06:33:32;;;;;;;64.17;34.80;;;-0.90;99.90;;;;;;6281481;22;20144;-88
2022/12/19 06:35:59;;;;;;;60.10;34.10;;;-0.90;99.90;;;;;;6281747;22;20152;-89
2022/12/19 06:38:26;;;;;;;64.20;35.43;;;-0.90;99.90;;;;;;6281258;22;20185;-89
2022/12/19 06:43:37;;;;;;;59.07;32.83;;;-0.90;99.90;;;;;;6307507;22;20225;-88
2022/12/19 06:46:03;;;;;;;67.07;34.93;;;-0.90;99.90;;;;;;6280984;22;20244;-89
2022/12/19 06:48:29;;;;;;;72.33;37.37;;;-0.90;99.90;;;;;;6280597;22;20179;-89
2022/12/19 06:50:55;;;;;;;66.87;36.40;;;-0.90;99.90;;;;;;6278146;22;20263;-89
2022/12/19 06:53:21;;;;;;;67.53;37.67;;;-0.90;99.90;;;;;;6278037;22;20239;-88
2022/12/19 06:55:49;;;;;;;68.30;36.83;;;-0.80;99.90;;;;;;6278503;22;20520;-89
2022/12/19 06:58:15;;;;;;;69.27;36.90;;;-0.80;99.90;;;;;;6278091;22;20163;-88
2022/12/19 07:00:41;;;;;;;110.20;52.80;;;-0.90;99.90;;;;;;6278108;22;20211;-89
2022/12/19 07:03:12;;;;;;;124.33;58.37;;;-0.80;99.90;;;;;;6278166;22;20168;-89
2022/12/19 07:05:39;;;;;;;109.10;51.37;;;-0.80;99.90;;;;;;6278460;22;20177;-89
2022/12/19 07:08:07;;;;;;;99.27;46.60;;;-0.70;99.90;;;;;;6278484;22;20248;-89
2022/12/19 07:10:33;;;;;;;91.13;46.07;;;-0.70;99.90;;;;;;6278248;22;20244;-89
2022/12/19 07:12:59;;;;;;;80.83;41.30;;;-0.70;99.90;;;;;;6278634;22;20217;-89
2022/12/19 07:15:35;;;;;;;74.17;39.17;;;-0.70;99.90;;;;;;6285374;22;20180;-88
2022/12/19 07:18:05;;;;;;;69.97;38.23;;;-0.70;99.90;;;;;;6279285;22;20172;-88
2022/12/19 07:20:33;;;;;;;70.67;38.70;;;-0.60;99.90;;;;;;6281669;22;20197;-89
2022/12/19 07:23:00;;;;;;;68.17;36.97;;;-0.60;99.90;;;;;;6278914;22;20156;-89
2022/12/19 07:25:26;;;;;;;70.57;37.70;;;-0.60;99.90;;;;;;6278555;22;20291;-89
2022/12/19 07:27:52;;;;;;;75.77;38.27;;;-0.60;99.90;;;;;;6279376;22;20204;-89
2022/12/19 07:30:18;;;;;;;70.90;39.13;;;-0.50;99.90;;;;;;6278603;22;20159;-89
2022/12/19 07:32:44;;;;;;;76.67;40.27;;;-0.50;99.90;;;;;;6278683;22;20158;-89
2022/12/19 07:35:10;;;;;;;69.00;38.63;;;-0.50;99.90;;;;;;6277558;22;20158;-89
2022/12/19 07:37:36;;;;;;;77.07;40.70;;;-0.50;99.90;;;;;;6278488;22;20256;-89
2022/12/19 07:40:03;;;;;;;93.00;45.60;;;-0.50;99.90;;;;;;6278407;22;20161;-89
2022/12/19 07:42:29;;;;;;;82.40;44.70;;;-0.40;99.90;;;;;;6278280;22;20522;-89
2022/12/19 07:44:55;;;;;;;79.73;42.47;;;-0.40;99.90;;;;;;6279194;22;20160;-89
2022/12/19 07:47:21;;;;;;;69.40;39.60;;;-0.40;99.90;;;;;;6279495;22;20203;-89
2022/12/19 07:49:47;;;;;;;68.57;36.90;;;-0.40;99.90;;;;;;6279471;22;20153;-88
2022/12/19 07:52:13;;;;;;;69.20;37.33;;;-0.40;99.90;;;;;;6279290;22;20180;-88
2022/12/19 07:54:39;;;;;;;74.47;38.50;;;-0.30;99.90;;;;;;6278186;22;20155;-88
2022/12/19 07:57:05;;;;;;;74.20;38.00;;;-0.30;99.90;;;;;;6277948;22;20171;-89
2022/12/19 07:59:31;;;;;;;68.03;38.23;;;-0.30;99.90;;;;;;6277548;22;20162;-89
2022/12/19 08:01:57;;;;;;;73.37;38.33;;;-0.20;99.90;;;;;;6278290;22;20173;-88
2022/12/19 08:04:23;;;;;;;69.13;38.57;;;-0.30;99.90;;;;;;6282715;22;20160;-89
2022/12/19 08:06:49;;;;;;;72.70;38.73;;;-0.20;99.90;;;;;;6279879;22;20186;-89
2022/12/19 08:09:15;;;;;;;72.13;39.20;;;-0.20;99.90;;;;;;6279155;22;20157;-88
2022/12/19 08:11:41;;;;;;;71.77;38.17;;;-0.20;99.90;;;;;;6252575;22;20174;-88
2022/12/19 08:14:07;;;;;;;70.53;36.40;;;-0.20;99.90;;;;;;6278936;22;20160;-88
2022/12/19 08:16:35;;;;;;;66.83;37.87;;;-0.20;99.90;;;;;;6279276;22;20163;-89
2022/12/19 08:19:01;;;;;;;73.20;39.63;;;-0.10;99.90;;;;;;6277878;22;20218;-89
2022/12/19 08:21:27;;;;;;;75.37;39.77;;;-0.10;99.90;;;;;;6277412;22;20197;-88
2022/12/19 08:23:53;;;;;;;75.90;40.50;;;-0.10;99.90;;;;;;6277586;22;20196;-89
2022/12/19 08:26:23;;;;;;;77.80;39.97;;;0.00;99.90;;;;;;6281812;22;20159;-89
2022/12/19 08:28:51;;;;;;;75.10;40.70;;;0.10;99.90;;;;;;6281047;22;20185;-88
2022/12/19 08:31:19;;;;;;;74.23;39.70;;;0.10;99.90;;;;;;6281006;22;20628;-89
2022/12/19 08:33:59;;;;;;;91.80;47.07;;;0.20;99.90;;;;;;6280947;22;20158;-89
2022/12/19 08:36:25;;;;;;;92.17;48.90;;;0.20;99.90;;;;;;6276891;22;20650;-89
2022/12/19 08:38:51;;;;;;;86.37;43.73;;;0.30;99.90;;;;;;6274542;22;20169;-89
2022/12/19 08:41:23;;;;;;;78.00;43.77;;;0.40;99.90;;;;;;6280022;22;20185;-88
2022/12/19 08:43:59;;;;;;;86.27;46.73;;;0.50;99.90;;;;;;6282627;22;20235;-89
2022/12/19 08:46:29;;;;;;;81.63;44.17;;;0.60;99.90;;;;;;6280656;22;20246;-89
2022/12/19 08:49:01;;;;;;;86.63;46.80;;;0.70;99.90;;;;;;6280978;22;20175;-89
2022/12/19 08:51:34;;;;;;;82.73;46.83;;;0.80;99.90;;;;;;6304866;22;20224;-89
2022/12/19 08:54:00;;;;;;;93.80;51.67;;;0.90;99.90;;;;;;6282912;22;20232;-88
2022/12/19 08:56:26;;;;;;;92.00;51.27;;;1.00;99.90;;;;;;6286664;22;20166;-89
2022/12/19 08:58:54;;;;;;;93.30;51.80;;;1.10;99.90;;;;;;6281440;22;20211;-89
2022/12/19 09:01:24;;;;;;;85.87;47.77;;;1.20;99.90;;;;;;6287822;22;20187;-89
2022/12/19 09:03:57;;;;;;;81.90;45.73;;;1.30;99.90;;;;;;6285317;22;20163;-89
2022/12/19 09:06:30;;;;;;;75.63;43.33;;;1.40;99.90;;;;;;6288247;22;20211;-89
2022/12/19 09:09:04;;;;;;;75.00;41.63;;;1.40;99.90;;;;;;6279136;22;20185;-88
2022/12/19 09:11:52;;;;;;;70.27;39.60;;;1.40;99.90;;;;;;6279133;22;20175;-88
2022/12/19 09:14:18;;;;;;;67.37;40.63;;;1.40;99.90;;;;;;6279228;22;20230;-89
2022/12/19 09:16:43;;;;;;;72.00;40.50;;;1.40;99.90;;;;;;6278888;22;20187;-89
2022/12/19 09:19:14;;;;;;;71.83;40.97;;;1.40;99.90;;;;;;6279425;22;20159;-89
2022/12/19 09:21:40;;;;;;;67.63;40.43;;;1.50;99.90;;;;;;6290774;22;20186;-89
2022/12/19 09:24:08;;;;;;;67.73;40.50;;;1.50;99.90;;;;;;6280082;22;20166;-89
2022/12/19 09:26:38;;;;;;;67.10;39.70;;;1.60;99.90;;;;;;6310081;22;20150;-89
2022/12/19 09:29:08;;;;;;;73.77;39.77;;;1.60;99.90;;;;;;6309604;22;20198;-89
2022/12/19 09:31:35;;;;;;;61.93;36.77;;;1.60;99.90;;;;;;6281886;22;20228;-89
2022/12/19 09:34:04;;;;;;;63.27;38.03;;;1.60;99.90;;;;;;6280559;22;20289;-89
2022/12/19 09:36:30;;;;;;;64.23;38.73;;;1.60;99.90;;;;;;6281627;22;20282;-89
2022/12/19 09:38:57;;;;;;;64.00;38.60;;;1.60;99.90;;;;;;6280589;22;20206;-89
2022/12/19 09:41:42;;;;;;;63.80;36.63;;;1.60;99.90;;;;;;6280553;22;20236;-89
2022/12/19 09:44:36;;;;;;;64.23;37.00;;;1.70;99.90;;;;;;6257523;22;20166;-89
2022/12/19 09:47:12;;;;;;;70.47;39.17;;;1.70;99.90;;;;;;6281725;22;20253;-89
2022/12/19 09:49:44;;;;;;;63.83;37.50;;;1.70;99.90;;;;;;6281119;22;20150;-89
2022/12/19 09:52:40;;;;;;;62.47;36.63;;;1.70;99.90;;;;;;6307593;22;20178;-89
2022/12/19 09:55:15;;;;;;;64.20;37.00;;;1.70;99.90;;;;;;6282870;22;20154;-90
2022/12/19 09:57:51;;;;;;;59.37;35.37;;;1.70;99.90;;;;;;6258275;22;20513;-89
2022/12/19 10:00:21;;;;;;;60.87;36.87;;;1.80;99.90;;;;;;6282224;22;20152;-90
2022/12/19 10:03:02;;;;;;;63.83;36.67;;;1.90;99.90;;;;;;6278050;22;20177;-90
2022/12/19 10:05:44;;;;;;;64.63;37.73;;;2.00;99.90;;;;;;6278940;22;20148;-90
2022/12/19 10:08:33;;;;;;;58.50;35.13;;;2.10;99.90;;;;;;6252789;22;20221;-89
2022/12/19 10:11:05;;;;;;;60.10;35.80;;;2.20;99.90;;;;;;6253392;22;20187;-89
2022/12/19 10:13:49;;;;;;;57.87;33.57;;;2.30;99.90;;;;;;6253362;22;20156;-90
2022/12/19 10:16:29;;;;;;;57.27;34.20;;;2.30;99.90;;;;;;6253902;22;20156;-90
2022/12/19 10:19:01;;;;;;;53.90;32.87;;;2.40;99.90;;;;;;6254319;22;20159;-89
2022/12/19 10:21:52;;;;;;;58.77;34.13;;;2.40;99.90;;;;;;6279378;22;20217;-90
2022/12/19 10:24:40;;;;;;;57.80;32.47;;;2.30;99.90;;;;;;6284049;22;20148;-90
2022/12/19 10:27:55;;;;;;;62.47;36.30;;;2.30;99.90;;;;;;6256075;22;20198;-89
2022/12/19 10:30:22;;;;;;;56.93;34.70;;;2.30;99.90;;;;;;6230256;22;20164;-90
2022/12/19 10:33:14;;;;;;;57.70;33.23;;;2.40;99.90;;;;;;6280055;22;20159;-90
2022/12/19 10:35:44;;;;;;;57.50;34.17;;;2.40;99.90;;;;;;6279800;22;20227;-90
2022/12/19 10:38:27;;;;;;;58.27;33.13;;;2.50;99.90;;;;;;6279024;22;20174;-89
2022/12/19 10:41:12;;;;;;;57.40;33.37;;;2.60;99.90;;;;;;6302953;22;20183;-90
2022/12/19 10:43:44;;;;;;;54.90;32.53;;;2.80;99.90;;;;;;6284293;22;20148;-90
2022/12/19 10:46:18;;;;;;;58.90;33.33;;;3.00;99.90;;;;;;6254844;22;20168;-90
2022/12/19 10:48:53;;;;;;;51.67;31.67;;;3.20;99.90;;;;;;6279414;22;20240;-90
2022/12/19 10:51:25;;;;;;;50.40;31.43;;;3.40;99.90;;;;;;6283341;22;20171;-90
2022/12/19 10:53:59;;;;;;;48.43;29.10;;;3.50;99.90;;;;;;6280437;22;20475;-90
2022/12/19 10:56:27;;;;;;;43.37;26.70;;;3.60;99.90;;;;;;6282905;22;20682;-90
2022/12/19 10:58:58;;;;;;;41.90;25.93;;;3.80;99.90;;;;;;6279681;22;20182;-86
2022/12/19 11:01:39;;;;;;;43.20;26.83;;;3.90;99.90;;;;;;6280861;22;20176;-90
2022/12/19 11:04:26;;;;;;;40.77;25.13;;;4.10;99.90;;;;;;6281282;22;20159;-89
2022/12/19 11:07:01;;;;;;;40.13;24.63;;;4.20;99.90;;;;;;6280912;22;20152;-89
2022/12/19 11:09:41;;;;;;;40.03;25.93;;;4.30;99.90;;;;;;6254877;22;20155;-89
2022/12/19 11:12:06;;;;;;;43.77;27.40;;;4.30;99.90;;;;;;6279941;22;20229;-89
2022/12/19 11:14:35;;;;;;;46.37;27.53;;;4.30;99.90;;;;;;6252939;22;20152;-90
2022/12/19 11:17:02;;;;;;;44.10;28.73;;;4.20;99.90;;;;;;6278287;22;20160;-89
2022/12/19 11:19:36;;;;;;;46.63;28.70;;;4.20;99.90;;;;;;6277364;22;20179;-90
2022/12/19 11:22:23;;;;;;;47.33;29.37;;;4.20;99.90;;;;;;6278201;22;20179;-90
2022/12/19 11:24:52;;;;;;;51.60;29.77;;;4.20;99.90;;;;;;6278944;22;20231;-90
2022/12/19 11:27:44;;;;;;;51.07;30.40;;;4.30;99.90;;;;;;6280301;22;20196;-90
2022/12/19 11:30:16;;;;;;;47.53;29.40;;;4.40;99.90;;;;;;6278191;22;20165;-90
2022/12/19 11:32:44;;;;;;;43.40;28.77;;;4.40;99.90;;;;;;6254484;22;20152;-90
2022/12/19 11:35:21;;;;;;;43.80;28.27;;;4.50;99.90;;;;;;6279750;22;20669;-90
2022/12/19 11:37:58;;;;;;;42.27;28.00;;;4.50;99.90;;;;;;6277901;22;20160;-90
2022/12/19 11:40:33;;;;;;;45.13;28.53;;;4.50;99.90;;;;;;6280720;22;20588;-90
2022/12/19 11:43:26;;;;;;;53.10;32.83;;;4.50;99.90;;;;;;6253463;22;20191;-90
2022/12/19 11:46:19;;;;;;;52.03;32.43;;;4.50;99.90;;;;;;6306085;22;20161;-91
2022/12/19 11:49:17;;;;;;;50.53;34.07;;;4.60;99.90;;;;;;6280665;22;20211;-91
2022/12/19 11:51:49;;;;;;;53.37;33.90;;;4.60;99.90;;;;;;6240191;22;20231;-90
2022/12/19 11:54:21;;;;;;;54.83;35.03;;;4.80;99.90;;;;;;6255565;22;20148;-91
2022/12/19 11:56:47;;;;;;;54.97;35.03;;;4.90;99.90;;;;;;6254726;22;20190;-91
2022/12/19 11:59:33;;;;;;;50.33;35.00;;;5.00;99.90;;;;;;6280232;22;20154;-92
2022/12/19 12:02:17;;;;;;;53.43;35.63;;;5.10;99.90;;;;;;6279881;22;20182;-91
2022/12/19 12:05:12;;;;;;;53.07;34.23;;;5.20;99.90;;;;;;6280021;22;20153;-91
2022/12/19 12:07:39;;;;;;;54.63;34.40;;;5.20;99.90;;;;;;6280192;22;20249;-91
2022/12/19 12:10:16;;;;;;;52.80;33.93;;;5.30;99.90;;;;;;6280996;22;20236;-91
2022/12/19 12:13:04;;;;;;;49.63;32.97;;;5.30;99.90;;;;;;6306661;22;20144;-91
2022/12/19 12:16:02;;;;;;;52.57;33.37;;;5.20;99.90;;;;;;6280597;22;20219;-91
2022/12/19 12:19:05;;;;;;;52.67;32.50;;;5.10;99.90;;;;;;6234913;22;20164;-91
2022/12/19 12:21:52;;;;;;;55.50;33.57;;;5.10;99.90;;;;;;6278363;22;20213;-92
2022/12/19 12:24:42;;;;;;;55.60;35.83;;;4.90;99.90;;;;;;6278499;22;20143;-91
2022/12/19 12:27:50;;;;;;;53.30;34.20;;;4.90;99.90;;;;;;6278618;22;20188;-92
2022/12/19 12:30:21;;;;;;;56.37;33.40;;;4.80;99.90;;;;;;6303829;22;20219;-92
2022/12/19 12:33:10;;;;;;;58.40;34.60;;;4.80;99.90;;;;;;6303366;22;20156;-92
2022/12/19 12:35:42;;;;;;;50.97;32.80;;;4.80;99.90;;;;;;6277442;22;20164;-92
2022/12/19 12:38:32;;;;;;;51.27;30.87;;;4.80;99.90;;;;;;6280932;22;20156;-92
2022/12/19 12:44:26;;;;;;;51.23;31.50;;;4.80;99.90;;;;;;6307871;22;20190;-92
2022/12/19 12:47:23;;;;;;;51.07;32.13;;;4.80;99.90;;;;;;6317849;22;20151;-92
2022/12/19 12:50:21;;;;;;;47.87;29.80;;;4.80;99.90;;;;;;6268464;22;20172;-92
2022/12/19 12:52:58;;;;;;;45.23;29.33;;;4.80;99.90;;;;;;6254627;22;20156;-92
2022/12/19 12:55:42;;;;;;;45.80;28.90;;;4.80;99.90;;;;;;6282588;22;20171;-91
2022/12/19 12:58:45;;;;;;;43.50;28.43;;;4.80;99.90;;;;;;6281584;22;20156;-92
2022/12/19 13:01:40;;;;;;;41.33;27.17;;;4.70;99.90;;;;;;6255781;22;20171;-93
2022/12/19 13:04:15;;;;;;;46.07;27.63;;;4.60;99.90;;;;;;6283639;22;20156;-92
2022/12/19 13:07:01;;;;;;;42.17;27.87;;;4.50;99.90;;;;;;6258128;22;20155;-92